createdAt,value
2022-11-24T00:01:07.859Z,68.5
2022-11-24T00:02:25.822Z,68.8
2022-11-24T00:03:44.090Z,69.4
2022-11-24T00:05:03.629Z,70.3
2022-11-24T00:06:21.658Z,71.2
2022-11-24T00:07:39.824Z,72
2022-11-24T00:08:58.834Z,72.5
2022-11-24T00:10:17.469Z,72.1
2022-11-24T00:11:35.792Z,71.7
2022-11-24T00:12:52.687Z,71
2022-11-24T00:14:10.730Z,70.3
2022-11-24T00:15:29.869Z,69.9
2022-11-24T00:16:48.905Z,69.6
2022-11-24T00:18:08.178Z,69.3
2022-11-24T00:19:26.498Z,69
2022-11-24T00:20:44.322Z,68.7
2022-11-24T00:22:02.445Z,68.6
2022-11-24T00:23:20.035Z,68.4
2022-11-24T00:24:38.263Z,68.4
2022-11-24T00:25:56.544Z,68.3
2022-11-24T00:27:14.794Z,68.3
2022-11-24T00:28:33.584Z,68.3
2022-11-24T00:29:51.717Z,68.4
2022-11-24T00:31:15.405Z,68.5
2022-11-24T00:32:29.351Z,68.7
2022-11-24T00:33:46.657Z,68.9
2022-11-24T00:35:04.788Z,68.9
2022-11-24T00:36:23.343Z,68.5
2022-11-24T00:37:42.637Z,68.4
2022-11-24T00:39:01.159Z,68
2022-11-24T00:40:19.976Z,67.9
2022-11-24T00:41:39.378Z,68
2022-11-24T00:42:58.009Z,67.9
2022-11-24T00:44:15.686Z,68.1
2022-11-24T00:45:34.928Z,68.3
2022-11-24T00:46:53.791Z,68.1
2022-11-24T00:48:11.472Z,68
2022-11-24T00:49:29.851Z,68.3
2022-11-24T00:50:47.737Z,68.3
2022-11-24T00:52:06.858Z,69
2022-11-24T00:53:25.652Z,69.8
2022-11-24T00:54:44.338Z,70.6
2022-11-24T00:56:02.799Z,71.5
2022-11-24T00:57:20.286Z,72.2
2022-11-24T00:58:38.572Z,72.4
2022-11-24T00:59:56.729Z,72.3
2022-11-24T01:01:14.543Z,72.1
2022-11-24T01:02:32.417Z,71.9
2022-11-24T01:03:52.046Z,71.7
2022-11-24T01:05:10.674Z,71.3
2022-11-24T01:06:27.984Z,70.5
2022-11-24T01:07:47.419Z,70
2022-11-24T01:09:04.683Z,69.7
2022-11-24T01:10:22.634Z,69.5
2022-11-24T01:11:41.095Z,69.3
2022-11-24T01:12:59.423Z,69.2
2022-11-24T01:14:17.972Z,69.2
2022-11-24T01:15:36.623Z,68.8
2022-11-24T01:16:54.915Z,68.6
2022-11-24T01:18:13.108Z,68.7
2022-11-24T01:19:30.697Z,68.7
2022-11-24T01:20:48.997Z,68.5
2022-11-24T01:22:07.703Z,68.5
2022-11-24T01:23:26.196Z,68.4
2022-11-24T01:24:44.626Z,68.6
2022-11-24T01:26:02.718Z,68.6
2022-11-24T01:27:21.269Z,68.1
2022-11-24T01:28:45.029Z,67.9
2022-11-24T01:29:59.011Z,68
2022-11-24T01:31:17.825Z,68
2022-11-24T01:32:36.984Z,68.3
2022-11-24T01:33:56.123Z,67.9
2022-11-24T01:35:14.685Z,67.7
2022-11-24T01:36:32.677Z,68.1
2022-11-24T01:37:50.821Z,69
2022-11-24T01:39:09.464Z,70
2022-11-24T01:40:26.760Z,70.9
2022-11-24T01:41:44.911Z,71.6
2022-11-24T01:43:03.257Z,71.8
2022-11-24T01:44:21.790Z,71.3
2022-11-24T01:45:41.204Z,70.8
2022-11-24T01:47:00.027Z,70.6
2022-11-24T01:48:18.235Z,69.9
2022-11-24T01:49:36.260Z,69.5
2022-11-24T01:50:55.489Z,69.1
2022-11-24T01:52:13.926Z,69
2022-11-24T01:53:32.866Z,69.2
2022-11-24T01:54:50.904Z,69.3
2022-11-24T01:56:08.930Z,69.4
2022-11-24T01:57:28.190Z,69.4
2022-11-24T01:58:46.802Z,69.2
2022-11-24T02:00:04.923Z,68.9
2022-11-24T02:01:23.488Z,68.9
2022-11-24T02:02:41.626Z,68.7
2022-11-24T02:03:59.861Z,68.6
2022-11-24T02:05:19.013Z,68.5
2022-11-24T02:06:37.552Z,68.2
2022-11-24T02:07:56.358Z,68
2022-11-24T02:09:14.807Z,68.1
2022-11-24T02:10:32.446Z,68.2
2022-11-24T02:11:51.462Z,68.3
2022-11-24T02:13:08.783Z,68.5
2022-11-24T02:14:26.803Z,68.7
2022-11-24T02:15:44.415Z,68.5
2022-11-24T02:17:02.395Z,68.3
2022-11-24T02:18:20.829Z,68.3
2022-11-24T02:19:39.534Z,68.3
2022-11-24T02:20:57.160Z,68.4
2022-11-24T02:22:16.296Z,68.3
2022-11-24T02:23:36.089Z,68.3
2022-11-24T02:24:54.717Z,68.3
2022-11-24T02:26:13.371Z,68.2
2022-11-24T02:27:31.804Z,68.2
2022-11-24T02:28:49.838Z,68.4
2022-11-24T02:30:06.915Z,68.2
2022-11-24T02:31:24.703Z,68.3
2022-11-24T02:32:43.278Z,68.4
2022-11-24T02:34:02.143Z,69.1
2022-11-24T02:35:20.847Z,69.9
2022-11-24T02:36:38.813Z,71
2022-11-24T02:37:56.963Z,71.7
2022-11-24T02:39:15.819Z,72.5
2022-11-24T02:40:33.971Z,73
2022-11-24T02:41:52.373Z,73.8
2022-11-24T02:43:10.433Z,73.9
2022-11-24T02:44:28.751Z,73.7
2022-11-24T02:45:48.230Z,73.2
2022-11-24T02:47:05.842Z,72.8
2022-11-24T02:48:23.829Z,72.6
2022-11-24T02:49:42.317Z,72.5
2022-11-24T02:51:00.711Z,72.2
2022-11-24T02:52:18.973Z,71.8
2022-11-24T02:53:36.756Z,71.7
2022-11-24T02:54:55.627Z,71.3
2022-11-24T02:56:13.449Z,70.9
2022-11-24T02:57:31.774Z,70.9
2022-11-24T02:58:49.888Z,70.9
2022-11-24T03:00:08.436Z,71
2022-11-24T03:01:26.821Z,71.1
2022-11-24T03:02:45.665Z,70.9
2022-11-24T03:04:04.039Z,71
2022-11-24T03:05:21.786Z,71.1
2022-11-24T03:06:41.016Z,71.3
2022-11-24T03:07:57.853Z,71.2
2022-11-24T03:09:15.925Z,71.3
2022-11-24T03:10:34.360Z,71
2022-11-24T03:11:53.009Z,70.8
2022-11-24T03:13:11.529Z,70.6
2022-11-24T03:14:28.853Z,70.7
2022-11-24T03:15:46.908Z,70.2
2022-11-24T03:17:05.284Z,70.3
2022-11-24T03:18:22.888Z,70.1
2022-11-24T03:19:40.882Z,69.5
2022-11-24T03:21:00.730Z,69.4
2022-11-24T03:22:18.922Z,68.9
2022-11-24T03:23:37.110Z,68.9
2022-11-24T03:24:54.931Z,68.9
2022-11-24T03:26:14.230Z,69.2
2022-11-24T03:27:33.053Z,69.9
2022-11-24T03:28:49.886Z,70.7
2022-11-24T03:30:08.191Z,71.6
2022-11-24T03:31:26.765Z,72.5
2022-11-24T03:32:44.947Z,73.2
2022-11-24T03:34:04.523Z,73.8
2022-11-24T03:35:23.667Z,73.9
2022-11-24T03:36:42.120Z,73.5
2022-11-24T03:38:00.140Z,72.9
2022-11-24T03:39:18.769Z,72.4
2022-11-24T03:40:37.023Z,71.9
2022-11-24T03:41:55.944Z,71.4
2022-11-24T03:43:13.349Z,70.7
2022-11-24T03:44:32.229Z,70
2022-11-24T03:45:50.848Z,69.6
2022-11-24T03:47:08.366Z,69.5
2022-11-24T03:48:26.384Z,69.3
2022-11-24T03:49:45.030Z,68.9
2022-11-24T03:51:03.851Z,68.3
2022-11-24T03:52:22.367Z,67.9
2022-11-24T03:53:40.316Z,67.7
2022-11-24T03:54:59.539Z,67.6
2022-11-24T03:56:18.448Z,67.8
2022-11-24T03:57:37.339Z,68
2022-11-24T03:58:55.814Z,68.1
2022-11-24T04:00:14.367Z,68.3
2022-11-24T04:01:32.936Z,68
2022-11-24T04:02:51.125Z,67.9
2022-11-24T04:04:08.563Z,68
2022-11-24T04:05:27.886Z,67.7
2022-11-24T04:06:46.121Z,67.7
2022-11-24T04:08:05.264Z,67.8
2022-11-24T04:09:25.129Z,68.9
2022-11-24T04:10:42.967Z,70.2
2022-11-24T04:12:00.787Z,71.3
2022-11-24T04:13:17.942Z,72.3
2022-11-24T04:14:35.313Z,72.9
2022-11-24T04:15:53.190Z,73.6
2022-11-24T04:17:11.985Z,74.2
2022-11-24T04:18:29.941Z,74.5
2022-11-24T04:19:48.959Z,75.1
2022-11-24T04:21:06.526Z,75.4
2022-11-24T04:22:25.028Z,75.6
2022-11-24T04:23:43.914Z,75.4
2022-11-24T04:25:01.329Z,75.1
2022-11-24T04:26:20.276Z,74.4
2022-11-24T04:27:39.843Z,73.7
2022-11-24T04:28:57.666Z,73
2022-11-24T04:30:16.099Z,72.1
2022-11-24T04:31:35.236Z,71.2
2022-11-24T04:32:54.273Z,70.5
2022-11-24T04:34:13.038Z,69.8
2022-11-24T04:35:29.991Z,69.5
2022-11-24T04:36:48.653Z,69.5
2022-11-24T04:38:07.834Z,69.2
2022-11-24T04:39:28.472Z,69.1
2022-11-24T04:40:44.392Z,68.9
2022-11-24T04:42:03.515Z,68.8
2022-11-24T04:43:22.048Z,69
2022-11-24T04:44:39.672Z,69
2022-11-24T04:45:57.943Z,69.2
2022-11-24T04:47:17.327Z,69.3
2022-11-24T04:48:35.603Z,69.1
2022-11-24T04:49:53.002Z,69
2022-11-24T04:51:11.198Z,68.7
2022-11-24T04:52:29.422Z,68.1
2022-11-24T04:53:48.316Z,67.9
2022-11-24T04:55:06.655Z,68.1
2022-11-24T04:56:24.840Z,68.1
2022-11-24T04:57:43.704Z,68.3
2022-11-24T04:59:06.723Z,68.2
2022-11-24T05:00:21.321Z,68.8
2022-11-24T05:01:40.079Z,69.9
2022-11-24T05:02:57.785Z,70.8
2022-11-24T05:04:16.128Z,71.4
2022-11-24T05:05:34.842Z,72.3
2022-11-24T05:06:52.569Z,73.2
2022-11-24T05:08:09.846Z,73.3
2022-11-24T05:09:41.901Z,73
2022-11-24T05:10:43.967Z,72.6
2022-11-24T05:12:02.372Z,72.4
2022-11-24T05:13:19.834Z,72
2022-11-24T05:14:37.196Z,71.6
2022-11-24T05:15:54.983Z,71.2
2022-11-24T05:17:12.921Z,70.7
2022-11-24T05:18:29.955Z,70.3
2022-11-24T05:19:46.858Z,69.8
2022-11-24T05:21:03.900Z,69.6
2022-11-24T05:22:21.122Z,69.4
2022-11-24T05:23:38.882Z,69.4
2022-11-24T05:24:55.862Z,69.5
2022-11-24T05:26:12.930Z,69.2
2022-11-24T05:27:30.199Z,69.2
2022-11-24T05:28:47.924Z,68.8
2022-11-24T05:30:05.030Z,68.7
2022-11-24T05:31:22.885Z,68.7
2022-11-24T05:32:39.857Z,68.7
2022-11-24T05:33:56.965Z,68.6
2022-11-24T05:35:13.864Z,68.7
2022-11-24T05:36:30.904Z,68.6
2022-11-24T05:37:47.885Z,68.5
2022-11-24T05:39:04.897Z,68.8
2022-11-24T05:40:22.878Z,68.7
2022-11-24T05:41:40.327Z,68.7
2022-11-24T05:42:57.862Z,69.1
2022-11-24T05:44:14.892Z,69.9
2022-11-24T05:45:32.216Z,70.8
2022-11-24T05:46:49.938Z,71.7
2022-11-24T05:48:07.154Z,72.6
2022-11-24T05:49:24.984Z,73.2
2022-11-24T05:50:41.874Z,73.9
2022-11-24T05:51:58.899Z,74.3
2022-11-24T05:53:15.878Z,74.7
2022-11-24T05:54:33.026Z,74.8
2022-11-24T05:55:49.755Z,74.7
2022-11-24T05:57:06.576Z,74.3
2022-11-24T05:58:23.652Z,73.8
2022-11-24T05:59:40.657Z,73.3
2022-11-24T06:00:57.553Z,72.8
2022-11-24T06:02:14.637Z,72.1
2022-11-24T06:03:31.617Z,71.7
2022-11-24T06:04:48.549Z,71.1
2022-11-24T06:06:05.610Z,70.4
2022-11-24T06:07:22.602Z,70.1
2022-11-24T06:08:39.580Z,69.8
2022-11-24T06:09:56.585Z,69.6
2022-11-24T06:11:13.633Z,69.4
2022-11-24T06:12:30.592Z,69.3
2022-11-24T06:13:47.678Z,69.3
2022-11-24T06:15:04.650Z,69.3
2022-11-24T06:16:21.844Z,69.4
2022-11-24T06:17:38.597Z,69.5
2022-11-24T06:18:55.675Z,69.6
2022-11-24T06:20:12.937Z,69.5
2022-11-24T06:21:29.577Z,69.6
2022-11-24T06:22:46.698Z,69.7
2022-11-24T06:24:03.612Z,69.9
2022-11-24T06:25:20.575Z,70.3
2022-11-24T06:26:37.578Z,70.4
2022-11-24T06:27:54.939Z,70.4
2022-11-24T06:29:11.658Z,70.7
2022-11-24T06:30:28.649Z,71.3
2022-11-24T06:31:45.704Z,72.1
2022-11-24T06:33:03.187Z,72.8
2022-11-24T06:34:20.690Z,73.6
2022-11-24T06:35:37.967Z,74.3
2022-11-24T06:36:54.596Z,74.3
2022-11-24T06:38:11.992Z,74.1
2022-11-24T06:39:28.888Z,73.9
2022-11-24T06:40:45.626Z,73.4
2022-11-24T06:42:02.601Z,73
2022-11-24T06:43:19.637Z,72.1
2022-11-24T06:44:36.842Z,71.8
2022-11-24T06:45:53.709Z,71.7
2022-11-24T06:47:10.630Z,71.5
2022-11-24T06:48:27.777Z,71.3
2022-11-24T06:49:44.676Z,71
2022-11-24T06:51:01.626Z,70.9
2022-11-24T06:52:19.498Z,70.4
2022-11-24T06:53:36.704Z,70.2
2022-11-24T06:54:53.670Z,70.1
2022-11-24T06:56:15.537Z,70.2
2022-11-24T06:57:27.615Z,69.9
2022-11-24T06:58:44.641Z,69.8
2022-11-24T07:00:02.494Z,69.8
2022-11-24T07:01:19.662Z,70
2022-11-24T07:02:38.843Z,69.7
2022-11-24T07:03:53.645Z,69.4
2022-11-24T07:05:10.828Z,69.4
2022-11-24T07:06:27.885Z,69.4
2022-11-24T07:07:44.746Z,68.9
2022-11-24T07:09:01.792Z,68.5
2022-11-24T07:10:18.636Z,68
2022-11-24T07:11:35.687Z,67.8
2022-11-24T07:12:52.698Z,67.4
2022-11-24T07:14:09.685Z,67.8
2022-11-24T07:15:26.692Z,68.6
2022-11-24T07:16:43.788Z,69.6
2022-11-24T07:18:00.714Z,70.7
2022-11-24T07:19:23.330Z,71.8
2022-11-24T07:20:34.652Z,72.5
2022-11-24T07:21:52.028Z,72.6
2022-11-24T07:23:08.849Z,72.4
2022-11-24T07:24:25.741Z,72.2
2022-11-24T07:25:43.176Z,72.1
2022-11-24T07:26:59.787Z,71.7
2022-11-24T07:28:16.698Z,71.8
2022-11-24T07:29:33.959Z,71.7
2022-11-24T07:30:50.703Z,71.7
2022-11-24T07:32:07.763Z,71.4
2022-11-24T07:33:25.211Z,71.1
2022-11-24T07:34:41.709Z,70.5
2022-11-24T07:35:58.833Z,70.2
2022-11-24T07:37:15.705Z,69.5
2022-11-24T07:38:32.674Z,69.2
2022-11-24T07:39:49.830Z,69.1
2022-11-24T07:41:07.890Z,68.8
2022-11-24T07:42:24.726Z,68.8
2022-11-24T07:43:41.880Z,68.6
2022-11-24T07:44:58.848Z,68.7
2022-11-24T07:46:15.948Z,68.7
2022-11-24T07:47:32.722Z,68.7
2022-11-24T07:48:49.727Z,68.9
2022-11-24T07:50:06.950Z,68.9
2022-11-24T07:51:23.687Z,68.8
2022-11-24T07:52:40.697Z,68.8
2022-11-24T07:53:57.741Z,69.4
2022-11-24T07:55:14.853Z,70.2
2022-11-24T07:56:32.014Z,71.1
2022-11-24T07:57:48.732Z,72.1
2022-11-24T07:59:06.253Z,72.8
2022-11-24T08:00:22.781Z,73.5
2022-11-24T08:01:39.888Z,73.7
2022-11-24T08:02:56.695Z,73.8
2022-11-24T08:04:13.800Z,73.2
2022-11-24T08:05:30.828Z,72.8
2022-11-24T08:06:47.904Z,72.2
2022-11-24T08:08:04.967Z,71.9
2022-11-24T08:09:21.760Z,71.5
2022-11-24T08:10:39.073Z,71.1
2022-11-24T08:11:56.081Z,70.9
2022-11-24T08:13:12.758Z,70.7
2022-11-24T08:14:29.760Z,70.3
2022-11-24T08:15:46.825Z,69.9
2022-11-24T08:17:03.919Z,69.6
2022-11-24T08:18:20.765Z,69.5
2022-11-24T08:19:37.774Z,69.3
2022-11-24T08:20:54.818Z,69
2022-11-24T08:22:11.746Z,68.9
2022-11-24T08:23:28.892Z,69.2
2022-11-24T08:24:45.742Z,69.7
2022-11-24T08:26:03.232Z,70.4
2022-11-24T08:27:19.817Z,71
2022-11-24T08:28:36.798Z,71.7
2022-11-24T08:29:53.833Z,71.9
2022-11-24T08:31:11.033Z,72.1
2022-11-24T08:32:27.823Z,72.3
2022-11-24T08:33:44.873Z,72.5
2022-11-24T08:35:13.275Z,72.8
2022-11-24T08:36:18.749Z,72.5
2022-11-24T08:37:35.766Z,72.2
2022-11-24T08:38:52.892Z,72
2022-11-24T08:40:09.756Z,71.8
2022-11-24T08:41:26.971Z,72.1
2022-11-24T08:42:43.840Z,72.9
2022-11-24T08:44:01.517Z,73.7
2022-11-24T08:45:22.006Z,74.4
2022-11-24T08:46:35.068Z,75.4
2022-11-24T08:47:51.955Z,75.9
2022-11-24T08:49:08.825Z,76.4
2022-11-24T08:50:25.803Z,76.9
2022-11-24T08:51:42.915Z,77.1
2022-11-24T08:52:59.796Z,77.2
2022-11-24T08:54:16.924Z,76.6
2022-11-24T08:55:33.844Z,76.5
2022-11-24T08:56:51.160Z,76.5
2022-11-24T08:58:08.085Z,76.3
2022-11-24T08:59:25.131Z,76.1
2022-11-24T09:00:42.009Z,75.9
2022-11-24T09:01:58.895Z,76.4
2022-11-24T09:03:15.800Z,76.3
2022-11-24T09:04:33.799Z,75.9
2022-11-24T09:05:52.426Z,75.2
2022-11-24T09:07:07.451Z,74.5
2022-11-24T09:08:25.011Z,74.6
2022-11-24T09:09:41.980Z,74.7
2022-11-24T09:10:59.122Z,73.9
2022-11-24T09:12:16.160Z,73.5
2022-11-24T09:13:32.832Z,72.7
2022-11-24T09:14:50.136Z,72.1
2022-11-24T09:16:06.900Z,72.3
2022-11-24T09:17:24.265Z,72.7
2022-11-24T09:18:40.826Z,72.3
2022-11-24T09:20:20.238Z,71.4
2022-11-24T09:21:37.564Z,70.6
2022-11-24T09:22:54.861Z,69.6
2022-11-24T09:24:18.341Z,68.9
2022-11-24T09:25:35.250Z,69.7
2022-11-24T09:26:52.332Z,70.9
2022-11-24T09:28:08.857Z,71.3
2022-11-24T09:29:25.879Z,71.4
2022-11-24T09:30:42.881Z,71.8
2022-11-24T09:32:05.179Z,72.5
2022-11-24T09:33:16.889Z,73.6
2022-11-24T09:34:34.115Z,74
2022-11-24T09:35:50.882Z,73.8
2022-11-24T09:37:07.853Z,74
2022-11-24T09:38:24.830Z,73.5
2022-11-24T09:39:42.018Z,72.9
2022-11-24T09:40:59.019Z,72.3
2022-11-24T09:42:16.155Z,71.6
2022-11-24T09:43:32.825Z,71.8
2022-11-24T09:44:49.998Z,71.2
2022-11-24T09:46:06.968Z,71.3
2022-11-24T09:47:23.855Z,71.1
2022-11-24T09:48:40.894Z,70.8
2022-11-24T09:49:58.108Z,70.6
2022-11-24T09:51:14.883Z,70.3
2022-11-24T09:52:31.956Z,70.8
2022-11-24T09:53:48.870Z,70.5
2022-11-24T09:55:05.989Z,70.5
2022-11-24T09:56:22.884Z,70.3
2022-11-24T09:57:39.913Z,69.9
2022-11-24T09:58:56.874Z,69
2022-11-24T10:00:13.999Z,68.9
2022-11-24T10:01:31.290Z,68.8
2022-11-24T10:02:48.000Z,68.2
2022-11-24T10:04:06.527Z,67.7
2022-11-24T10:05:21.946Z,67.5
2022-11-24T10:06:38.918Z,67.8
2022-11-24T10:07:55.915Z,68.3
2022-11-24T10:09:12.891Z,68.7
2022-11-24T10:10:29.888Z,68.2
2022-11-24T10:11:46.943Z,68
2022-11-24T10:13:03.878Z,68.1
2022-11-24T10:14:20.958Z,68.8
2022-11-24T10:15:37.972Z,69.9
2022-11-24T10:16:54.951Z,71.5
2022-11-24T10:18:16.649Z,72.1
2022-11-24T10:19:36.242Z,72.4
2022-11-24T10:20:45.976Z,72.8
2022-11-24T10:22:02.936Z,73
2022-11-24T10:23:19.891Z,72.3
2022-11-24T10:24:36.989Z,70.9
2022-11-24T10:25:53.936Z,69.6
2022-11-24T10:27:10.949Z,69.2
2022-11-24T10:28:27.893Z,69.6
2022-11-24T10:29:45.830Z,69.5
2022-11-24T10:31:03.063Z,69.4
2022-11-24T10:32:19.982Z,70.2
2022-11-24T10:33:36.933Z,70.1
2022-11-24T10:34:53.987Z,69.5
2022-11-24T10:36:10.950Z,69.2
2022-11-24T10:37:28.167Z,69.3
2022-11-24T10:38:45.284Z,68.5
2022-11-24T10:40:01.943Z,67.7
2022-11-24T10:41:18.909Z,67.6
2022-11-24T10:42:35.937Z,67
2022-11-24T10:43:52.921Z,67.4
2022-11-24T10:45:10.144Z,67.5
2022-11-24T10:46:27.094Z,68.1
2022-11-24T10:47:44.142Z,67.4
2022-11-24T10:49:00.941Z,67.1
2022-11-24T10:50:17.983Z,66.8
2022-11-24T10:51:34.972Z,66.7
2022-11-24T10:52:51.973Z,67
2022-11-24T10:54:09.067Z,67.6
2022-11-24T10:55:26.190Z,68.3
2022-11-24T10:56:43.068Z,68.6
2022-11-24T10:57:59.930Z,69
2022-11-24T10:59:17.000Z,69.7
2022-11-24T11:00:35.029Z,70.9
2022-11-24T11:01:51.076Z,71.9
2022-11-24T11:03:08.009Z,72.6
2022-11-24T11:04:25.015Z,73.3
2022-11-24T11:05:42.366Z,73.6
2022-11-24T11:06:59.019Z,73.1
2022-11-24T11:08:15.952Z,72.8
2022-11-24T11:09:33.346Z,71.9
2022-11-24T11:10:49.985Z,71.7
2022-11-24T11:12:27.967Z,71.2
2022-11-24T11:13:24.285Z,70
2022-11-24T11:14:41.068Z,69.3
2022-11-24T11:15:58.136Z,68.7
2022-11-24T11:17:14.979Z,68.1
2022-11-24T11:18:32.042Z,67.9
2022-11-24T11:19:50.197Z,68.2
2022-11-24T11:21:06.064Z,67.9
2022-11-24T11:22:22.962Z,68.1
2022-11-24T11:23:40.058Z,67.9
2022-11-24T11:24:56.981Z,67.5
2022-11-24T11:26:14.222Z,67.9
2022-11-24T11:27:31.017Z,67.9
2022-11-24T11:28:48.028Z,67.4
2022-11-24T11:31:22.849Z,66.3
2022-11-24T11:34:05.181Z,65.6
2022-11-24T11:35:13.213Z,65.7
2022-11-24T11:36:30.063Z,65.6
2022-11-24T11:37:47.018Z,65.5
2022-11-24T11:39:03.990Z,65.6
2022-11-24T11:40:21.142Z,65.5
2022-11-24T11:41:38.409Z,65.2
2022-11-24T11:43:03.473Z,64.8
2022-11-24T11:44:13.196Z,64.7
2022-11-24T11:45:30.255Z,64.7
2022-11-24T11:46:47.907Z,64.5
2022-11-24T11:48:04.689Z,64.5
2022-11-24T11:49:22.078Z,64.6
2022-11-24T11:50:59.385Z,64.6
2022-11-24T11:52:10.712Z,64.8
2022-11-24T11:53:28.080Z,64.5
2022-11-24T11:54:45.284Z,65.1
2022-11-24T11:56:02.022Z,65.8
2022-11-24T11:57:19.009Z,66.6
2022-11-24T11:58:36.067Z,67.1
2022-11-24T11:59:53.150Z,67.3
2022-11-24T12:01:10.043Z,67.7
2022-11-24T12:02:27.163Z,67.4
2022-11-24T12:03:44.169Z,67.1
2022-11-24T12:05:01.246Z,66.8
2022-11-24T12:06:18.047Z,66.3
2022-11-24T12:07:35.782Z,65.7
2022-11-24T12:09:23.006Z,65.3
2022-11-24T12:10:10.393Z,64.4
2022-11-24T12:11:27.151Z,63.8
2022-11-24T12:12:44.391Z,63.2
2022-11-24T12:14:01.062Z,63
2022-11-24T12:15:18.075Z,62.6
2022-11-24T12:16:35.097Z,62.3
2022-11-24T12:17:52.125Z,62.1
2022-11-24T12:19:09.217Z,62.1
2022-11-24T12:20:26.101Z,62.4
2022-11-24T12:21:43.407Z,62.4
2022-11-24T12:23:00.101Z,61.8
2022-11-24T12:24:17.188Z,61.7
2022-11-24T12:25:34.446Z,61.6
2022-11-24T12:26:51.083Z,61.5
2022-11-24T12:28:08.184Z,61.2
2022-11-24T12:29:25.081Z,60.4
2022-11-24T12:30:42.141Z,60.1
2022-11-24T12:31:59.146Z,60.3
2022-11-24T12:33:16.233Z,60.4
2022-11-24T12:34:33.202Z,60.4
2022-11-24T12:35:50.122Z,60.2
2022-11-24T12:37:07.508Z,60.7
2022-11-24T12:38:24.155Z,60.8
2022-11-24T12:39:41.093Z,60.8
2022-11-24T12:41:12.002Z,60.9
2022-11-24T12:42:15.140Z,60.7
2022-11-24T12:43:32.111Z,61.3
2022-11-24T12:44:49.189Z,62
2022-11-24T12:46:06.676Z,62.7
2022-11-24T12:47:23.104Z,63.6
2022-11-24T12:48:40.132Z,64.8
2022-11-24T12:49:57.094Z,65.5
2022-11-24T12:51:14.417Z,66
2022-11-24T12:52:31.109Z,66.7
2022-11-24T12:53:48.181Z,66.7
2022-11-24T12:55:05.194Z,66.9
2022-11-24T12:56:22.149Z,67.4
2022-11-24T12:57:39.094Z,67.4
2022-11-24T12:58:56.113Z,67.7
2022-11-24T13:00:13.264Z,67.9
2022-11-24T13:01:30.174Z,68.4
2022-11-24T13:02:47.452Z,68.4
2022-11-24T13:04:05.013Z,68.4
2022-11-24T13:05:22.144Z,68.5
2022-11-24T13:06:42.028Z,68.8
2022-11-24T13:07:56.275Z,69.4
2022-11-24T13:09:13.327Z,69.6
2022-11-24T13:10:46.816Z,70
2022-11-24T13:11:47.174Z,70.1
2022-11-24T13:13:05.018Z,69.7
2022-11-24T13:14:22.348Z,69.8
2022-11-24T13:15:45.860Z,69.8
2022-11-24T13:18:13.471Z,69
2022-11-24T13:19:30.208Z,68.7
2022-11-24T13:20:47.138Z,68.5
2022-11-24T13:22:04.272Z,68.4
2022-11-24T13:23:21.143Z,67.9
2022-11-24T13:24:38.370Z,66.9
2022-11-24T13:25:55.266Z,66.6
2022-11-24T13:27:12.284Z,67.3
2022-11-24T13:28:46.435Z,68.2
2022-11-24T13:29:46.356Z,68.9
2022-11-24T13:31:03.220Z,69.5
2022-11-24T13:32:20.206Z,70
2022-11-24T13:33:37.336Z,70.4
2022-11-24T13:34:54.145Z,71.2
2022-11-24T13:36:11.181Z,71.7
2022-11-24T13:37:32.176Z,72.2
2022-11-24T13:38:45.220Z,72.2
2022-11-24T13:40:02.180Z,72.2
2022-11-24T13:41:28.368Z,72.1
2022-11-24T13:42:41.398Z,71.6
2022-11-24T13:43:53.202Z,71.4
2022-11-24T13:45:10.159Z,71.1
2022-11-24T13:46:27.209Z,71.2
2022-11-24T13:47:44.539Z,71.4
2022-11-24T13:49:01.186Z,71.7
2022-11-24T13:50:18.195Z,71.5
2022-11-24T13:51:35.201Z,71.2
2022-11-24T13:52:52.184Z,71.2
2022-11-24T13:54:09.180Z,71.4
2022-11-24T13:55:26.287Z,71.7
2022-11-24T13:56:43.290Z,71.9
2022-11-24T13:58:00.233Z,72.4
2022-11-24T13:59:17.185Z,72.9
2022-11-24T14:00:34.737Z,73.5
2022-11-24T14:01:51.425Z,73.9
2022-11-24T14:03:08.222Z,73.9
2022-11-24T14:04:33.207Z,74
2022-11-24T14:05:42.277Z,73.8
2022-11-24T14:07:05.488Z,73.8
2022-11-24T14:08:16.265Z,73.8
2022-11-24T14:09:33.218Z,73.6
2022-11-24T14:10:50.323Z,73.7
2022-11-24T14:12:07.478Z,73.4
2022-11-24T14:13:24.245Z,72.8
2022-11-24T14:14:41.196Z,72.6
2022-11-24T14:15:58.332Z,71.9
2022-11-24T14:17:15.282Z,71.9
2022-11-24T14:18:32.203Z,72.5
2022-11-24T14:19:49.444Z,73
2022-11-24T14:21:06.281Z,73.3
2022-11-24T14:22:23.244Z,73.6
2022-11-24T14:23:40.219Z,73.8
2022-11-24T14:24:57.210Z,73.8
2022-11-24T14:26:14.399Z,73.8
2022-11-24T14:27:31.219Z,73.4
2022-11-24T14:28:48.418Z,73.1
2022-11-24T14:30:05.589Z,73
2022-11-24T14:31:22.348Z,72.5
2022-11-24T14:32:39.389Z,72.4
2022-11-24T14:33:56.375Z,72.4
2022-11-24T14:35:13.500Z,72.2
2022-11-24T14:36:30.226Z,72.1
2022-11-24T14:37:47.246Z,72
2022-11-24T14:39:04.380Z,72.2
2022-11-24T14:40:21.235Z,72.5
2022-11-24T14:41:38.270Z,73
2022-11-24T14:42:55.247Z,73.4
2022-11-24T14:44:12.321Z,73.8
2022-11-24T14:45:29.259Z,74.2
2022-11-24T14:46:46.380Z,74.4
2022-11-24T14:48:03.277Z,74.3
2022-11-24T14:49:20.379Z,74.3
2022-11-24T14:50:37.429Z,73.9
2022-11-24T14:51:54.754Z,73.5
2022-11-24T14:53:11.274Z,73.3
2022-11-24T14:54:28.261Z,73
2022-11-24T14:55:45.272Z,72.8
2022-11-24T14:57:02.273Z,72.4
2022-11-24T14:58:19.237Z,72.4
2022-11-24T14:59:36.256Z,72.1
2022-11-24T15:00:53.430Z,71.9
2022-11-24T15:02:10.643Z,72
2022-11-24T15:03:27.639Z,72.4
2022-11-24T15:05:01.934Z,72.9
2022-11-24T15:06:01.395Z,73.4
2022-11-24T15:07:18.380Z,73.7
2022-11-24T15:08:35.302Z,73.6
2022-11-24T15:09:52.324Z,73.2
2022-11-24T15:11:10.928Z,73.1
2022-11-24T15:12:27.403Z,72.7
2022-11-24T15:13:44.400Z,72.2
2022-11-24T15:15:01.310Z,71.8
2022-11-24T15:16:18.299Z,71.5
2022-11-24T15:17:35.318Z,71.2
2022-11-24T15:18:52.297Z,71.2
2022-11-24T15:20:09.324Z,71.4
2022-11-24T15:21:26.295Z,71.7
2022-11-24T15:22:43.312Z,72
2022-11-24T15:24:00.352Z,72.3
2022-11-24T15:25:17.304Z,72.4
2022-11-24T15:26:40.171Z,72.1
2022-11-24T15:27:52.388Z,72.1
2022-11-24T15:29:09.301Z,71.8
2022-11-24T15:30:26.391Z,71.5
2022-11-24T15:31:46.394Z,71.5
2022-11-24T15:33:00.334Z,71.5
2022-11-24T15:34:17.338Z,71.8
2022-11-24T15:35:34.303Z,72.1
2022-11-24T15:36:51.310Z,72.3
2022-11-24T15:38:08.363Z,72.1
2022-11-24T15:39:25.318Z,71.9
2022-11-24T15:40:42.331Z,71.5
2022-11-24T15:41:59.520Z,71.8
2022-11-24T15:43:16.470Z,72.3
2022-11-24T15:44:33.554Z,73
2022-11-24T15:45:50.352Z,73.9
2022-11-24T15:47:07.802Z,74.6
2022-11-24T15:48:24.297Z,75.1
2022-11-24T15:49:41.704Z,75.3
2022-11-24T15:50:58.337Z,75.1
2022-11-24T15:52:16.244Z,74.9
2022-11-24T15:53:34.128Z,74.6
2022-11-24T15:54:51.375Z,74.2
2022-11-24T15:56:08.597Z,74.2
2022-11-24T15:57:25.491Z,74
2022-11-24T15:58:42.418Z,74
2022-11-24T15:59:59.335Z,74.1
2022-11-24T16:01:16.442Z,73.9
2022-11-24T16:02:33.470Z,74
2022-11-24T16:03:50.467Z,73.8
2022-11-24T16:05:07.452Z,73.8
2022-11-24T16:06:25.729Z,73.4
2022-11-24T16:07:42.690Z,73.3
2022-11-24T16:08:59.424Z,73
2022-11-24T16:10:16.519Z,73.2
2022-11-24T16:11:34.714Z,73.6
2022-11-24T16:12:51.630Z,73.8
2022-11-24T16:14:09.034Z,73.8
2022-11-24T16:15:26.345Z,73.8
2022-11-24T16:16:44.381Z,73.8
2022-11-24T16:18:01.425Z,73.8
2022-11-24T16:19:19.166Z,73.7
2022-11-24T16:20:37.129Z,73.5
2022-11-24T16:21:55.112Z,73.5
2022-11-24T16:23:11.571Z,73.6
2022-11-24T16:24:28.593Z,73.6
2022-11-24T16:25:45.850Z,73.7
2022-11-24T16:27:03.629Z,74.2
2022-11-24T16:28:20.837Z,74.6
2022-11-24T16:29:38.600Z,75
2022-11-24T16:30:55.402Z,75.3
2022-11-24T16:32:12.561Z,75.3
2022-11-24T16:33:30.045Z,75
2022-11-24T16:34:48.137Z,74.7
2022-11-24T16:36:05.390Z,74
2022-11-24T16:37:22.383Z,73.4
2022-11-24T16:38:39.458Z,72.9
2022-11-24T16:39:56.435Z,72.4
2022-11-24T16:41:14.393Z,71.7
2022-11-24T16:42:31.389Z,71.5
2022-11-24T16:43:48.456Z,71.6
2022-11-24T16:45:05.665Z,71.6
2022-11-24T16:46:22.527Z,71.1
2022-11-24T16:47:39.426Z,71.1
2022-11-24T16:48:56.825Z,70.7
2022-11-24T16:50:13.686Z,70.4
2022-11-24T16:51:34.594Z,70.3
2022-11-24T16:52:47.459Z,69.7
2022-11-24T16:54:04.626Z,69.2
2022-11-24T16:55:22.559Z,69.3
2022-11-24T16:56:39.872Z,69.2
2022-11-24T16:57:56.684Z,69
2022-11-24T16:59:13.615Z,68.9
2022-11-24T17:00:30.698Z,68.9
2022-11-24T17:01:48.368Z,69
2022-11-24T17:03:06.189Z,69.1
2022-11-24T17:04:23.443Z,69.4
2022-11-24T17:05:40.611Z,69.4
2022-11-24T17:06:57.440Z,69.6
2022-11-24T17:08:15.197Z,69.5
2022-11-24T17:09:36.060Z,69.8
2022-11-24T17:10:49.467Z,70.2
2022-11-24T17:12:06.569Z,70.3
2022-11-24T17:13:23.469Z,70.6
2022-11-24T17:14:40.450Z,71.4
2022-11-24T17:15:57.569Z,72.3
2022-11-24T17:17:14.515Z,72.9
2022-11-24T17:18:31.800Z,73.1
2022-11-24T17:19:48.679Z,72.8
2022-11-24T17:21:09.396Z,72.4
2022-11-24T17:22:22.432Z,71.8